Flight Track Log - Related Links

Times and Time Zones

All times are in EDT time to prevent confusion due to time zone crossing. See the AXM5243 flight status page for this flight to view local times or setup timezone preferences in your user account.

Time Position Orientation Groundspeed Altitude Reporting Facility
EDT Latitude Longitude Course Direction KTS MPH feet Rate Location/Type
Fri 08:03:49 AM 2.9250 111.0640 261° West 455 524 31,400  Level FlightAware ADS-B
Fri 08:04:28 AM 2.9150 110.9940 262° West 455 524 31,400 1,357 Level FlightAware ADS-B
Fri 08:05:13 AM 2.8980 110.8800 262° West 451 519 33,300 1,835 Climbing FlightAware ADS-B
Fri 08:05:53 AM 2.8850 110.7980 261° West 451 519 34,000 1,756 Climbing FlightAware ADS-B
Fri 08:06:35 AM 2.8720 110.7140 261° West 419 482 35,700 1,605 Climbing FlightAware ADS-B
Fri 08:07:19 AM 2.8590 110.6310 261° West 420 483 36,300 578 Climbing FlightAware ADS-B
Fri 08:07:58 AM 2.8480 110.5560 262° West 428 493 36,500 643 Climbing FlightAware ADS-B
Fri 08:08:43 AM 2.8340 110.4660 261° West 423 487 37,200 594 Climbing FlightAware ADS-B
Fri 08:09:39 AM 2.8390 110.3580 273° West 431 496 37,500 375 Climbing FlightAware ADS-B
Fri 08:10:19 AM 2.8550 110.2800 282° West 433 498 37,800 366 Climbing FlightAware ADS-B
Fri 08:11:01 AM 2.8700 110.1960 280° West 439 505 38,000 130 Climbing FlightAware ADS-B
Fri 08:11:51 AM 2.8840 110.0950 278° West 450 518 38,000  Level FlightAware ADS-B
Fri 08:12:40 AM 2.8940 109.9930 276° West 464 534 38,000  Level FlightAware ADS-B
Fri 08:13:23 AM 2.9040 109.8970 276° West 473 544 38,000  Level FlightAware ADS-B
Fri 08:14:04 AM 2.9110 109.8080 275° West 473 544 38,000  Level FlightAware ADS-B
Fri 08:14:43 AM 2.9090 109.7240 269° West 472 543 38,000  Level FlightAware ADS-B
Fri 08:15:26 AM 2.8940 109.6300 261° West 473 544 38,000  Level FlightAware ADS-B
Fri 08:16:24 AM 2.8680 109.5050 258° West 471 542 38,000  Level FlightAware ADS-B
Fri 08:17:04 AM 2.8510 109.4210 259° West 472 543 38,000  Level FlightAware ADS-B
Fri 08:17:49 AM 2.8310 109.3250 258° West 472 543 38,000  Level FlightAware ADS-B
Fri 08:18:28 AM 2.8140 109.2400 259° West 472 543 38,000  Level FlightAware ADS-B
Fri 08:19:13 AM 2.7940 109.1450 258° West 473 544 38,000  Level FlightAware ADS-B
Fri 08:19:53 AM 2.7760 109.0600 258° West 474 545 38,000  Level FlightAware ADS-B
Fri 08:20:34 AM 2.7580 108.9700 259° West 476 548 38,000  Level FlightAware ADS-B
Fri 08:21:20 AM 2.7370 108.8690 258° West 477 549 38,000  Level FlightAware ADS-B
Fri 08:22:00 AM 2.7200 108.7860 258° West 478 550 38,000 77 Level FlightAware ADS-B
Fri 08:22:38 AM 2.7020 108.7030 258° West 477 549 38,100  Climbing FlightAware ADS-B
Fri 08:23:22 AM 2.6820 108.6060 258° West 474 545 38,000 -68 Descending FlightAware ADS-B
Fri 08:24:06 AM 2.6630 108.5120 259° West 473 544 38,000  Level FlightAware ADS-B
Fri 08:24:44 AM 2.6480 108.4420 258° West 472 543 38,000  Level FlightAware ADS-B
Fri 08:25:19 AM 2.6340 108.3790 257° West 472 543 38,000  Level FlightAware ADS-B
Fri 08:26:07 AM 2.6160 108.2920 258° West 472 543 38,000  Level FlightAware ADS-B
Fri 08:26:46 AM 2.6010 108.2210 258° West 472 543 38,000  Level FlightAware ADS-B
Fri 08:27:23 AM 2.5870 108.1530 258° West 472 543 38,000  Level FlightAware ADS-B
Fri 08:28:11 AM 2.5680 108.0660 258° West 472 543 38,000  Level FlightAware ADS-B
Fri 08:28:47 AM 2.5540 108.0010 258° West 472 543 38,000  Level FlightAware ADS-B
Fri 08:29:33 AM 2.5190 107.8200 259° West 470 541 38,000  Level FlightAware ADS-B
Fri 08:30:39 AM 2.4890 107.6770 258° West 474 545 38,000 55 Level FlightAware ADS-B
Fri 08:31:23 AM 2.4690 107.5820 258° West 474 545 38,100 71 Climbing FlightAware ADS-B
Fri 08:32:03 AM 2.4530 107.5070 258° West 474 545 38,100  Level FlightAware ADS-B
Fri 08:32:39 AM 2.4390 107.4410 258° West 474 545 38,100  Level FlightAware ADS-B
Fri 08:33:15 AM 2.4250 107.3760 258° West 474 545 38,100 -73 Level FlightAware ADS-B
Fri 08:34:01 AM 2.3980 107.2430 259° West 473 544 38,000 -71 Descending FlightAware ADS-B
Fri 08:34:39 AM 2.3850 107.1650 261° West 473 544 38,000  Level FlightAware ADS-B
Fri 08:35:29 AM 2.3720 107.0730 262° West 473 544 38,000  Level FlightAware ADS-B
Fri 08:36:03 AM 2.3630 107.0100 262° West 473 544 38,000  Level FlightAware ADS-B
Fri 08:36:51 AM 2.3510 106.9220 262° West 473 544 38,000  Level FlightAware ADS-B
Fri 08:37:33 AM 2.4540 106.7920 308° West 470 541 38,000  Level FlightAware ADS-B
Fri 08:38:14 AM 2.4770 106.7060 285° West 471 542 38,000  Level FlightAware ADS-B
Fri 08:38:59 AM 2.5040 106.6090 286° West 472 543 38,000  Level FlightAware ADS-B
Fri 08:39:37 AM 2.5260 106.5310 286° West 471 542 38,000  Level FlightAware ADS-B
Fri 08:40:16 AM 2.5450 106.4580 285° West 471 542 38,000  Level FlightAware ADS-B
Fri 08:41:04 AM 2.5680 106.3720 285° West 471 542 38,000  Level FlightAware ADS-B
Fri 08:41:40 AM 2.5860 106.3070 285° West 471 542 38,000  Level FlightAware ADS-B
Fri 08:42:29 AM 2.6260 106.1670 286° West 482 555 38,000  Level FlightAware ADS-B
Fri 08:43:09 AM 2.6500 106.0790 285° West 483 556 38,000 73 Level FlightAware ADS-B
Fri 08:43:51 AM 2.6750 105.9890 286° West 483 556 38,100 69 Climbing FlightAware ADS-B
Fri 08:44:36 AM 2.6980 105.9050 285° West 483 556 38,100 -67 Level FlightAware ADS-B
Fri 08:45:21 AM 2.7290 105.7950 286° West 478 550 38,000 -69 Descending FlightAware ADS-B
Fri 08:46:03 AM 2.7540 105.7050 286° West 475 547 38,000  Level FlightAware ADS-B
Fri 08:46:41 AM 2.7760 105.6250 285° West 474 545 38,000  Level FlightAware ADS-B
Fri 08:47:18 AM 2.7940 105.5560 285° West 473 544 38,000  Level FlightAware ADS-B
Fri 08:48:03 AM 2.8230 105.4520 286° West 474 545 38,000  Level FlightAware ADS-B
Fri 08:48:47 AM 2.8480 105.3610 285° West 475 547 38,000  Level FlightAware ADS-B
Fri 08:49:45 AM 2.8790 105.2480 285° West 475 547 38,000  Level FlightAware ADS-B
Fri 08:50:21 AM 2.9050 105.1580 286° West 476 548 38,000  Level FlightAware ADS-B
Fri 08:51:37 AM 2.9430 105.0150 285° West 476 548 38,000  Level FlightAware ADS-B
Fri 08:52:38 AM 2.9730 104.9040 285° West 476 548 38,000  Level FlightAware ADS-B
Fri 08:53:13 AM 2.9900 104.7900 278° West 480 552 38,000  Level FlightAware ADS-B
Fri 08:53:51 AM 2.9980 104.7180 276° West 480 552 38,000  Level FlightAware ADS-B
Fri 08:54:37 AM 3.0140 104.6050 278° West 477 549 38,000  Level FlightAware ADS-B
Fri 08:55:19 AM 3.0260 104.5130 277° West 476 548 38,000  Level FlightAware ADS-B
Fri 08:56:01 AM 3.0380 104.4210 277° West 476 548 38,000  Level FlightAware ADS-B
Fri 08:56:39 AM 3.0490 104.3380 278° West 476 548 38,000  Level FlightAware ADS-B
Fri 08:57:38 AM 3.0620 104.2280 277° West 476 548 38,000  Level FlightAware ADS-B
Fri 08:58:15 AM 3.0760 104.1290 278° West 477 549 38,000  Level FlightAware ADS-B
Fri 08:58:54 AM 3.0850 104.0560 277° West 477 549 38,000  Level FlightAware ADS-B
Fri 08:59:44 AM 3.1000 103.9440 278° West 477 549 38,000 -188 Level FlightAware ADS-B
Fri 09:00:30 AM 3.1150 103.8320 278° West 479 551 37,700 -434 Descending FlightAware ADS-B
Fri 09:01:07 AM 3.1240 103.7620 277° West 480 552 37,400 -243 Descending FlightAware ADS-B
Fri 09:01:44 AM 3.1320 103.6930 277° West 480 552 37,400 -1,888 Level FlightAware ADS-B
Fri 09:02:36 AM 3.1490 103.5660 278° West 426 490 34,600 -1,904 Descending FlightAware ADS-B
Fri 09:03:28 AM 3.1510 103.4860 271° West 423 487 34,100 -2,147 Descending FlightAware ADS-B
Fri 09:04:11 AM 3.1350 103.3800 261° West 419 482 31,200 -3,108 Descending FlightAware ADS-B
Fri 09:04:51 AM 3.1260 103.3090 263° West 418 481 29,800 -2,200 Descending FlightAware ADS-B
Fri 09:05:41 AM 3.1120 103.2070 262° West 415 478 27,900 -2,067 Descending FlightAware ADS-B
Fri 09:06:21 AM 3.1030 103.1360 263° West 403 464 26,700 -1,765 Descending FlightAware ADS-B
Fri 09:07:06 AM 3.0920 103.0530 262° West 394 453 25,400 -1,875 Descending FlightAware ADS-B
Fri 09:07:41 AM 3.0830 102.9880 262° West 389 448 24,200 -1,760 Descending FlightAware ADS-B
Fri 09:08:21 AM 3.0740 102.9200 262° West 373 429 23,200 -1,694 Descending FlightAware ADS-B
Fri 09:09:06 AM 3.0640 102.8450 262° West 367 422 21,800 -1,341 Descending FlightAware ADS-B
Fri 09:09:46 AM 3.0550 102.7780 262° West 338 389 21,300 -1,425 Descending FlightAware ADS-B
Fri 09:10:26 AM 3.0460 102.7140 262° West 342 394 19,900 -1,500 Descending FlightAware ADS-B
Fri 09:11:02 AM 3.0390 102.6610 262° West 320 368 19,400 -635 Descending FlightAware ADS-B
Fri 09:11:51 AM 3.0300 102.5950 262° West 283 326 19,000 -270 Descending FlightAware ADS-B
Fri 09:12:31 AM 3.0230 102.5420 262° West 261 300 19,000  Level FlightAware ADS-B
Fri 09:13:16 AM 3.0160 102.4880 263° West 261 300 19,000  Level FlightAware ADS-B
Fri 09:13:41 AM 3.0080 102.4640 252° West 266 306 19,000  Level FlightAware ADS-B
Fri 09:13:56 AM 2.9950 102.4520 223° Southwest 272 313 19,000  Level FlightAware ADS-B
Fri 09:14:13 AM 2.9730 102.4460 195° South 278 320 19,000  Level FlightAware ADS-B
Fri 09:14:51 AM 2.9340 102.4760 142° Southeast 288 331 19,000  Level FlightAware ADS-B
Fri 09:15:31 AM 2.9380 102.5300 86° East 287 330 19,000  Level FlightAware ADS-B
Fri 09:16:16 AM 2.9460 102.5850 82° East 288 331 19,000  Level FlightAware ADS-B
Fri 09:16:46 AM 2.9590 102.6230 71° East 284 327 19,000  Level FlightAware ADS-B
Fri 09:17:06 AM 2.9840 102.6360 27° Northeast 274 315 19,000  Level FlightAware ADS-B
Fri 09:17:36 AM 3.0160 102.6260 343° North 261 300 19,000  Level FlightAware ADS-B
Fri 09:17:56 AM 3.0300 102.6030 301° West 261 300 19,000  Level FlightAware ADS-B
Fri 09:18:36 AM 3.0260 102.5590 265° West 260 299 19,000  Level FlightAware ADS-B
Fri 09:19:16 AM 3.0190 102.5080 262° West 262 302 19,000  Level FlightAware ADS-B
Fri 09:20:03 AM 3.0120 102.4590 262° West 261 300 19,000 -1,600 Level FlightAware ADS-B
Fri 09:20:16 AM 2.9850 102.4430 211° Southwest 299 344 17,400 -5,143 Descending FlightAware ADS-B
Fri 09:20:31 AM 2.9680 102.4310 215° Southwest 310 357 16,600 -2,500 Descending FlightAware ADS-B
Fri 09:21:16 AM 2.9220 102.3850 225° Southwest 323 372 14,900 -1,579 Descending FlightAware ADS-B
Fri 09:22:06 AM 2.8740 102.3360 226° Southwest 298 343 14,100 -1,267 Descending FlightAware ADS-B
Fri 09:22:46 AM 2.8340 102.2940 226° Southwest 292 336 13,000 -1,667 Descending FlightAware ADS-B
Fri 09:23:36 AM 2.7860 102.2440 226° Southwest 292 336 11,600 -1,680 Descending FlightAware ADS-B
Fri 09:24:26 AM 2.7380 102.1950 226° Southwest 292 336 10,200 -1,440 Descending FlightAware ADS-B
Fri 09:25:16 AM 2.6960 102.1510 226° Southwest 281 323 9,200 -600 Descending FlightAware ADS-B
Fri 09:26:06 AM 2.6540 102.1070 226° Southwest 261 300 9,200  Level FlightAware ADS-B
Fri 09:26:33 AM 2.6270 102.0990 196° South 261 300 9,200  Level FlightAware ADS-B
Fri 09:26:57 AM 2.6040 102.0930 195° South 261 300 9,200  Level FlightAware ADS-B
Fri 09:27:21 AM 2.5800 102.0860 196° South 261 300 9,200  Level FlightAware ADS-B
Fri 09:27:45 AM 2.5560 102.0790 196° South 261 300 9,200  Level FlightAware ADS-B
Fri 09:30:00 AM 2.7107 101.7778 297° West  Level Estimated
Fri 09:31:00 AM 2.7456 101.7099 297° West  Level Estimated
Fri 09:32:00 AM 2.7456 101.7099 236° Southwest  Level Estimated
Fri 09:33:00 AM 2.7456 101.7099 236° Southwest  Level Estimated
Fri 09:34:00 AM 2.7456 101.7099 236° Southwest  Level Estimated
Fri 09:35:00 AM 2.7456 101.7099 236° Southwest  Level Estimated
Fri 09:36:00 AM 2.7456 101.7099 236° Southwest  Level Estimated
Fri 09:37:00 AM 2.7456 101.7099 236° Southwest  Level Estimated
Fri 09:38:00 AM 2.7456 101.7099 236° Southwest  Level Estimated
Fri 09:39:00 AM 2.7456 101.7099 236° Southwest  Level Estimated
Fri 09:40:00 AM 2.7456 101.7099 236° Southwest  Level Estimated
Fri 09:41:00 AM 2.7456 101.7099 236° Southwest  Level Estimated

Login

Don't have an account? Register now (free) for customized features, flight alerts, and more!